createdAt,value
2018-07-09T00:01:32.384Z,17.60
2018-07-09T00:06:35.380Z,17.50
2018-07-09T00:11:38.393Z,17.00
2018-07-09T00:16:41.404Z,16.80
2018-07-09T00:21:44.528Z,16.80
2018-07-09T00:26:47.601Z,16.50
2018-07-09T00:31:50.884Z,16.40
2018-07-09T00:36:53.932Z,16.60
2018-07-09T00:41:56.994Z,16.80
2018-07-09T00:47:00.015Z,16.60
2018-07-09T00:52:03.028Z,16.40
2018-07-09T00:57:05.996Z,16.40
2018-07-09T01:02:09.216Z,16.40
2018-07-09T01:07:12.512Z,16.60
2018-07-09T01:12:15.732Z,16.30
2018-07-09T01:17:19.039Z,16.10
2018-07-09T01:22:22.253Z,15.90
2018-07-09T01:27:25.476Z,16.00
2018-07-09T01:32:28.676Z,16.10
2018-07-09T01:37:31.875Z,15.80
2018-07-09T01:42:35.162Z,15.70
2018-07-09T01:47:38.116Z,15.80
2018-07-09T01:52:41.224Z,15.90
2018-07-09T01:57:44.212Z,15.80
2018-07-09T02:02:47.535Z,15.40
2018-07-09T02:07:50.579Z,14.70
2018-07-09T02:12:53.727Z,15.00
2018-07-09T02:17:56.948Z,15.30
2018-07-09T02:22:59.926Z,15.20
2018-07-09T02:28:03.152Z,15.20
2018-07-09T02:33:06.163Z,14.90
2018-07-09T02:38:09.463Z,14.80
2018-07-09T02:43:12.571Z,14.50
2018-07-09T02:48:15.781Z,14.60
2018-07-09T02:53:18.728Z,14.70
2018-07-09T02:58:21.896Z,15.00
2018-07-09T03:03:25.107Z,14.80
2018-07-09T03:08:28.092Z,14.80
2018-07-09T03:13:31.236Z,14.60
2018-07-09T03:18:34.380Z,14.40
2018-07-09T03:23:37.628Z,14.30
2018-07-09T03:28:40.934Z,14.50
2018-07-09T03:33:44.139Z,14.80
2018-07-09T03:38:47.116Z,15.10
2018-07-09T03:43:50.388Z,15.30
2018-07-09T03:48:53.336Z,14.70
2018-07-09T03:53:56.299Z,14.60
2018-07-09T03:58:59.480Z,14.80
2018-07-09T04:04:02.522Z,15.10
2018-07-09T04:09:05.919Z,15.30
2018-07-09T04:14:08.960Z,15.40
2018-07-09T04:19:12.096Z,15.10
2018-07-09T04:24:15.099Z,15.70
2018-07-09T04:29:18.088Z,16.30
2018-07-09T04:34:21.055Z,18.00
2018-07-09T04:39:24.043Z,20.00
2018-07-09T04:44:27.228Z,21.00
2018-07-09T04:49:30.376Z,21.70
2018-07-09T04:54:33.544Z,22.70
2018-07-09T04:59:36.757Z,22.50
2018-07-09T05:04:39.959Z,22.90
2018-07-09T05:09:42.952Z,23.30
2018-07-09T05:14:46.167Z,24.10
2018-07-09T05:19:49.381Z,24.60
2018-07-09T05:24:52.384Z,25.00
2018-07-09T05:29:55.557Z,24.90
2018-07-09T05:34:58.800Z,26.10
2018-07-09T05:40:01.909Z,25.30
2018-07-09T05:45:05.536Z,24.30
2018-07-09T05:50:08.831Z,24.30
2018-07-09T05:55:11.967Z,24.90
2018-07-09T06:00:15.065Z,25.90
2018-07-09T06:05:18.047Z,26.00
2018-07-09T06:10:21.256Z,26.00
2018-07-09T06:15:24.471Z,25.60
2018-07-09T06:20:27.689Z,25.40
2018-07-09T06:25:30.859Z,25.10
2018-07-09T06:30:34.503Z,24.50
2018-07-09T06:35:37.837Z,24.60
2018-07-09T06:40:40.904Z,25.20
2018-07-09T06:45:44.175Z,25.20
2018-07-09T06:50:47.345Z,25.80
2018-07-09T06:55:50.388Z,26.30
2018-07-09T07:00:53.551Z,25.20
2018-07-09T07:05:56.760Z,25.40
2018-07-09T07:10:59.944Z,26.30
2018-07-09T07:16:02.967Z,26.60
2018-07-09T07:21:06.347Z,26.50
2018-07-09T07:26:09.598Z,26.00
2018-07-09T07:31:12.812Z,26.80
2018-07-09T07:36:15.956Z,26.70
2018-07-09T07:41:18.994Z,27.10
2018-07-09T07:46:22.114Z,28.00
2018-07-09T07:51:25.100Z,27.70
2018-07-09T07:56:28.143Z,27.30
2018-07-09T08:01:31.209Z,27.70
2018-07-09T08:06:34.292Z,25.80
2018-07-09T08:11:48.555Z,26.70
2018-07-09T08:16:40.428Z,26.30
2018-07-09T08:21:43.801Z,25.70
2018-07-09T08:26:46.816Z,26.10
2018-07-09T08:31:50.084Z,26.10
2018-07-09T08:36:53.031Z,25.70
2018-07-09T08:41:56.048Z,26.30
2018-07-09T08:46:59.152Z,26.60
2018-07-09T08:52:02.176Z,27.20
2018-07-09T08:57:05.234Z,26.10
2018-07-09T09:02:08.768Z,26.00
2018-07-09T09:07:11.876Z,26.20
2018-07-09T09:12:15.127Z,26.30
2018-07-09T09:17:18.443Z,25.70
2018-07-09T09:22:21.656Z,26.10
2018-07-09T09:27:24.682Z,26.10
2018-07-09T09:32:27.883Z,25.50
2018-07-09T09:37:31.020Z,26.30
2018-07-09T09:42:34.195Z,26.40
2018-07-09T09:47:37.245Z,26.30
2018-07-09T09:52:40.276Z,25.80
2018-07-09T09:57:43.392Z,26.50
2018-07-09T10:02:46.472Z,26.50
2018-07-09T10:07:49.499Z,26.10
2018-07-09T10:12:52.579Z,26.40
2018-07-09T10:17:56.223Z,26.70
2018-07-09T10:22:59.350Z,27.20
2018-07-09T10:28:02.271Z,26.90
2018-07-09T10:33:05.656Z,26.00
2018-07-09T10:38:08.855Z,26.60
2018-07-09T10:43:12.281Z,25.90
2018-07-09T10:48:15.338Z,26.30
2018-07-09T10:53:18.348Z,25.70
2018-07-09T10:58:21.492Z,25.90
2018-07-09T11:03:25.321Z,26.40
2018-07-09T11:08:28.331Z,26.40
2018-07-09T11:13:31.631Z,27.20
2018-07-09T11:18:34.947Z,27.40
2018-07-09T11:23:38.008Z,26.60
2018-07-09T11:28:41.407Z,27.40
2018-07-09T11:33:44.669Z,27.60
2018-07-09T11:38:47.783Z,27.50
2018-07-09T11:43:50.771Z,26.80
2018-07-09T11:48:53.952Z,27.10
2018-07-09T11:53:57.067Z,26.90
2018-07-09T11:59:00.299Z,26.50
2018-07-09T12:04:03.353Z,26.10
2018-07-09T12:09:06.558Z,26.40
2018-07-09T12:14:09.798Z,27.20
2018-07-09T12:19:13.136Z,27.70
2018-07-09T12:24:16.169Z,26.70
2018-07-09T12:29:19.239Z,27.00
2018-07-09T12:34:22.435Z,27.30
2018-07-09T12:39:25.459Z,26.30
2018-07-09T12:44:28.594Z,27.00
2018-07-09T12:54:34.736Z,26.50
2018-07-09T12:59:37.989Z,26.60
2018-07-09T13:04:41.020Z,27.30
2018-07-09T13:09:44.018Z,27.20
2018-07-09T13:14:47.096Z,27.30
2018-07-09T13:19:50.545Z,26.70
2018-07-09T13:24:53.571Z,27.00
2018-07-09T13:29:57.068Z,27.00
2018-07-09T13:35:00.468Z,26.90
2018-07-09T13:40:03.828Z,26.80
2018-07-09T13:45:06.891Z,27.00
2018-07-09T13:50:10.075Z,27.40
2018-07-09T13:55:13.289Z,27.70
2018-07-09T14:00:16.429Z,27.50
2018-07-09T14:05:19.451Z,27.80
2018-07-09T14:10:22.435Z,28.40
2018-07-09T14:15:25.468Z,27.80
2018-07-09T14:20:31.358Z,27.70
2018-07-09T14:25:34.699Z,27.40
2018-07-09T14:30:37.811Z,27.50
2018-07-09T14:35:40.841Z,27.50
2018-07-09T14:40:43.858Z,27.50
2018-07-09T14:45:46.887Z,27.50
2018-07-09T14:50:49.916Z,27.80
2018-07-09T14:55:52.990Z,27.80
2018-07-09T15:00:56.141Z,27.90
2018-07-09T15:05:59.125Z,28.20
2018-07-09T15:11:02.264Z,27.90
2018-07-09T15:16:05.308Z,27.70
2018-07-09T15:21:08.342Z,27.30
2018-07-09T15:26:11.665Z,26.90
2018-07-09T15:31:14.660Z,27.20
2018-07-09T15:36:17.868Z,27.70
2018-07-09T15:41:20.916Z,27.70
2018-07-09T15:46:23.907Z,28.20
2018-07-09T15:51:26.924Z,28.00
2018-07-09T15:56:30.193Z,27.70
2018-07-09T16:01:33.399Z,27.80
2018-07-09T16:06:36.500Z,27.20
2018-07-09T16:11:39.539Z,27.40
2018-07-09T16:16:42.532Z,27.10
2018-07-09T16:21:45.610Z,27.20
2018-07-09T16:26:48.719Z,27.30
2018-07-09T16:31:52.044Z,27.10
2018-07-09T16:36:55.251Z,26.30
2018-07-09T16:41:58.473Z,25.80
2018-07-09T16:47:01.724Z,25.80
2018-07-09T16:52:04.833Z,25.70
2018-07-09T16:57:07.968Z,25.50
2018-07-09T17:02:11.204Z,25.60
2018-07-09T17:07:14.228Z,25.40
2018-07-09T17:12:17.512Z,25.30
2018-07-09T17:17:20.832Z,25.50
2018-07-09T17:22:24.231Z,25.40
2018-07-09T17:27:27.253Z,25.50
2018-07-09T17:32:30.237Z,25.30
2018-07-09T17:37:33.486Z,25.50
2018-07-09T17:42:36.580Z,25.50
2018-07-09T17:47:39.592Z,25.50
2018-07-09T17:52:42.622Z,25.00
2018-07-09T17:57:45.866Z,24.80
2018-07-09T18:02:49.063Z,24.80
2018-07-09T18:07:52.274Z,24.60
2018-07-09T18:12:55.539Z,24.60
2018-07-09T18:17:58.564Z,24.50
2018-07-09T18:23:01.820Z,24.50
2018-07-09T18:28:04.936Z,24.30
2018-07-09T18:33:08.272Z,24.20
2018-07-09T18:38:11.304Z,24.10
2018-07-09T18:43:14.549Z,24.00
2018-07-09T18:48:17.833Z,23.90
2018-07-09T18:53:20.880Z,23.70
2018-07-09T18:58:24.097Z,23.40
2018-07-09T19:03:27.148Z,23.00
2018-07-09T19:08:30.601Z,22.90
2018-07-09T19:13:34.004Z,22.70
2018-07-09T19:18:54.335Z,22.70
2018-07-09T19:23:56.195Z,22.60
2018-07-09T19:28:57.633Z,22.60
2018-07-09T19:33:59.282Z,22.30
2018-07-09T19:39:00.876Z,22.10
2018-07-09T19:44:02.336Z,22.10
2018-07-09T19:49:03.801Z,22.10
2018-07-09T19:54:05.405Z,21.90
2018-07-09T19:59:06.900Z,22.00
2018-07-09T20:04:08.667Z,22.00
2018-07-09T20:09:15.818Z,22.00
2018-07-09T20:14:23.178Z,21.80
2018-07-09T20:19:24.857Z,21.70
2018-07-09T20:24:26.495Z,21.70
2018-07-09T20:29:27.995Z,21.90
2018-07-09T20:34:29.649Z,22.00
2018-07-09T20:39:31.312Z,21.90
2018-07-09T20:44:32.760Z,21.90
2018-07-09T20:49:34.199Z,22.10
2018-07-09T20:54:35.829Z,22.10
2018-07-09T20:59:37.492Z,22.10
2018-07-09T21:04:38.964Z,22.20
2018-07-09T21:09:40.650Z,22.00
2018-07-09T21:14:42.328Z,22.00
2018-07-09T21:19:43.799Z,21.90
2018-07-09T21:24:45.232Z,21.90
2018-07-09T21:29:46.839Z,21.70
2018-07-09T21:34:48.321Z,21.60
2018-07-09T21:39:49.971Z,21.60
2018-07-09T21:44:51.395Z,21.50
2018-07-09T21:49:52.863Z,21.40
2018-07-09T21:54:54.389Z,21.50
2018-07-09T21:59:55.835Z,21.40
2018-07-09T22:04:57.428Z,21.60
2018-07-09T22:15:00.747Z,21.40
2018-07-09T22:20:02.196Z,21.40
2018-07-09T22:25:04.401Z,21.40
2018-07-09T22:30:05.956Z,21.40
2018-07-09T22:35:09.281Z,21.30
2018-07-09T22:40:12.563Z,21.20
2018-07-09T22:45:15.481Z,20.80
2018-07-09T22:50:18.605Z,20.80
2018-07-09T22:55:38.815Z,20.70
2018-07-09T23:00:41.808Z,20.70
2018-07-09T23:05:45.559Z,20.70
2018-07-09T23:11:20.279Z,20.90
2018-07-09T23:16:50.203Z,20.80
2018-07-09T23:22:10.395Z,21.00
2018-07-09T23:27:11.816Z,21.00
2018-07-09T23:32:13.240Z,21.00
2018-07-09T23:37:14.926Z,20.90
2018-07-09T23:42:16.420Z,21.00
2018-07-09T23:47:17.964Z,21.00
2018-07-09T23:52:19.375Z,21.00
2018-07-09T23:59:49.717Z,21.00
